createdAt,value
2019-02-07T00:01:08.724Z,-1.10
2019-02-07T00:03:36.301Z,-1.10
2019-02-07T00:06:03.919Z,-1.10
2019-02-07T00:08:31.495Z,-1.10
2019-02-07T00:11:01.569Z,-1.10
2019-02-07T00:13:29.234Z,-1.10
2019-02-07T00:15:56.816Z,-1.00
2019-02-07T00:18:24.396Z,-1.20
2019-02-07T00:20:51.985Z,-1.20
2019-02-07T00:23:21.487Z,-1.20
2019-02-07T00:25:49.820Z,-1.20
2019-02-07T00:28:19.357Z,-1.20
2019-02-07T00:30:46.928Z,-1.20
2019-02-07T00:33:15.268Z,-1.20
2019-02-07T00:35:43.041Z,-1.20
2019-02-07T00:38:10.665Z,-1.10
2019-02-07T00:40:38.236Z,-1.10
2019-02-07T00:43:05.804Z,-1.20
2019-02-07T00:45:34.323Z,-1.20
2019-02-07T00:48:01.912Z,-1.20
2019-02-07T00:50:31.168Z,-1.20
2019-02-07T00:52:57.104Z,-1.30
2019-02-07T00:55:24.724Z,-1.40
2019-02-07T00:57:52.300Z,-1.40
2019-02-07T01:00:21.388Z,-1.50
2019-02-07T01:02:50.939Z,-1.50
2019-02-07T01:05:18.521Z,-1.60
2019-02-07T01:07:48.016Z,-1.50
2019-02-07T01:10:18.476Z,-1.50
2019-02-07T01:12:46.047Z,-1.40
2019-02-07T01:15:13.631Z,-1.30
2019-02-07T01:17:41.214Z,-1.40
2019-02-07T01:20:09.742Z,-1.30
2019-02-07T01:22:37.328Z,-1.20
2019-02-07T01:25:05.689Z,-1.00
2019-02-07T01:27:33.302Z,-1.10
2019-02-07T01:30:01.818Z,-1.10
2019-02-07T01:32:30.164Z,-1.10
2019-02-07T01:34:57.748Z,-1.20
2019-02-07T01:37:25.320Z,-1.10
2019-02-07T01:39:52.892Z,-1.10
2019-02-07T01:42:20.472Z,-1.20
2019-02-07T01:44:48.093Z,-1.20
2019-02-07T01:47:15.681Z,-1.40
2019-02-07T01:49:45.180Z,-1.30
2019-02-07T01:52:12.766Z,-1.20
2019-02-07T01:54:40.344Z,-1.20
2019-02-07T01:57:08.694Z,-1.00
2019-02-07T01:59:36.264Z,-1.00
2019-02-07T02:02:03.886Z,-1.10
2019-02-07T02:04:31.472Z,-1.20
2019-02-07T02:06:59.059Z,-1.30
2019-02-07T02:09:26.644Z,-1.20
2019-02-07T02:11:54.227Z,-1.20
2019-02-07T02:14:21.890Z,-1.20
2019-02-07T02:16:50.391Z,-1.30
2019-02-07T02:19:17.997Z,-1.30
2019-02-07T02:21:45.579Z,-1.30
2019-02-07T02:24:13.153Z,-1.30
2019-02-07T02:26:41.660Z,-1.30
2019-02-07T02:29:09.240Z,-1.30
2019-02-07T02:31:36.820Z,-1.20
2019-02-07T02:34:04.401Z,-1.10
2019-02-07T02:36:32.992Z,-1.10
2019-02-07T02:39:00.576Z,-1.20
2019-02-07T02:41:30.041Z,-1.10
2019-02-07T02:43:57.704Z,-1.10
2019-02-07T02:46:25.281Z,-1.10
2019-02-07T02:48:52.856Z,-1.10
2019-02-07T02:51:20.437Z,-1.00
2019-02-07T02:53:48.767Z,-1.00
2019-02-07T02:56:16.333Z,-1.00
2019-02-07T02:58:43.918Z,-1.00
2019-02-07T03:01:14.407Z,-0.90
2019-02-07T03:03:41.976Z,-0.90
2019-02-07T03:06:21.411Z,-0.90
2019-02-07T03:11:42.904Z,-0.80
2019-02-07T03:14:21.272Z,-1.00
2019-02-07T03:17:02.402Z,-1.10
2019-02-07T03:19:34.893Z,-1.10
2019-02-07T03:22:04.233Z,-1.00
2019-02-07T03:24:38.156Z,-1.00
2019-02-07T03:27:09.300Z,-1.00
2019-02-07T03:29:39.712Z,-1.00
2019-02-07T03:32:09.233Z,-0.90
2019-02-07T03:34:49.654Z,-0.80
2019-02-07T03:37:33.943Z,-0.80
2019-02-07T03:40:05.032Z,-0.70
2019-02-07T03:42:38.328Z,-0.60
2019-02-07T03:45:17.592Z,-0.60
2019-02-07T03:47:50.836Z,-0.60
2019-02-07T03:50:28.337Z,-0.60
2019-02-07T03:53:02.588Z,-0.70
2019-02-07T03:55:33.028Z,-0.70
2019-02-07T03:58:06.337Z,-0.70
2019-02-07T04:00:43.834Z,-0.70
2019-02-07T04:03:12.319Z,-0.60
2019-02-07T04:05:39.898Z,-0.70
2019-02-07T04:08:13.116Z,-0.70
2019-02-07T04:13:37.480Z,-0.60
2019-02-07T04:16:14.689Z,-0.70
2019-02-07T04:18:50.372Z,-0.60
2019-02-07T04:21:18.811Z,-0.50
2019-02-07T04:24:03.915Z,-0.50
2019-02-07T04:26:31.788Z,-0.50
2019-02-07T04:29:16.228Z,-0.50
2019-02-07T04:34:54.785Z,-0.50
2019-02-07T04:37:23.276Z,-0.50
2019-02-07T04:40:11.936Z,-0.50
2019-02-07T04:42:51.946Z,-0.50
2019-02-07T04:45:20.498Z,-0.40
2019-02-07T04:47:50.464Z,-0.40
2019-02-07T04:50:36.896Z,-0.40
2019-02-07T04:53:23.184Z,-0.30
2019-02-07T04:55:57.348Z,-0.40
2019-02-07T04:58:29.894Z,-0.40
2019-02-07T05:01:03.186Z,-0.40
2019-02-07T05:03:33.604Z,-0.40
2019-02-07T05:06:05.744Z,-0.20
2019-02-07T05:08:34.236Z,-0.10
2019-02-07T05:11:08.316Z,-0.20
2019-02-07T05:13:54.697Z,-0.20
2019-02-07T05:16:25.247Z,-0.20
2019-02-07T05:18:55.379Z,-0.10
2019-02-07T05:21:40.509Z,0.00
2019-02-07T05:24:16.801Z,-0.10
2019-02-07T05:26:45.220Z,-0.20
2019-02-07T05:29:19.437Z,-0.10
2019-02-07T05:35:03.075Z,-0.10
2019-02-07T05:37:35.321Z,-0.10
2019-02-07T05:40:03.392Z,-0.10
2019-02-07T05:42:31.945Z,-0.10
2019-02-07T05:45:12.304Z,-0.10
2019-02-07T05:47:47.529Z,-0.10
2019-02-07T05:53:26.371Z,0.10
2019-02-07T05:55:59.646Z,0.10
2019-02-07T05:58:42.109Z,0.10
2019-02-07T06:01:12.536Z,0.30
2019-02-07T06:03:45.682Z,0.30
2019-02-07T06:06:15.750Z,0.40
2019-02-07T06:08:44.897Z,0.50
2019-02-07T06:11:18.041Z,0.50
2019-02-07T06:13:48.945Z,0.60
2019-02-07T06:19:12.609Z,0.60
2019-02-07T06:21:48.086Z,0.60
2019-02-07T06:24:15.977Z,0.70
2019-02-07T06:26:56.456Z,0.80
2019-02-07T06:29:24.032Z,0.80
2019-02-07T06:31:57.200Z,0.80
2019-02-07T06:34:40.585Z,0.80
2019-02-07T06:37:09.940Z,0.90
2019-02-07T06:39:56.337Z,1.10
2019-02-07T06:42:33.857Z,1.20
2019-02-07T06:45:06.125Z,1.30
2019-02-07T06:47:47.480Z,1.40
2019-02-07T06:50:25.016Z,1.60
2019-02-07T06:52:59.068Z,1.80
2019-02-07T06:58:25.834Z,1.90
2019-02-07T07:00:53.409Z,1.90
2019-02-07T07:03:21.618Z,1.90
2019-02-07T07:06:05.732Z,2.10
2019-02-07T07:08:34.943Z,2.10
2019-02-07T07:11:20.259Z,2.00
2019-02-07T07:13:49.759Z,2.20
2019-02-07T07:16:21.978Z,2.30
2019-02-07T07:18:53.219Z,2.30
2019-02-07T07:21:26.270Z,2.40
2019-02-07T07:24:10.631Z,2.40
2019-02-07T07:26:39.095Z,2.50
2019-02-07T07:29:11.424Z,2.50
2019-02-07T07:31:45.339Z,2.70
2019-02-07T07:34:16.313Z,2.90
2019-02-07T07:36:47.783Z,2.90
2019-02-07T07:39:26.188Z,3.10
2019-02-07T07:44:54.925Z,3.10
2019-02-07T07:47:35.654Z,3.10
2019-02-07T07:50:02.309Z,3.20
2019-02-07T07:52:39.868Z,3.30
2019-02-07T07:55:07.948Z,3.50
2019-02-07T07:57:56.321Z,3.60
2019-02-07T08:00:23.898Z,3.50
2019-02-07T08:02:57.120Z,3.70
2019-02-07T08:05:28.492Z,3.90
2019-02-07T08:08:13.880Z,4.00
2019-02-07T08:10:47.153Z,4.00
2019-02-07T08:13:21.367Z,4.20
2019-02-07T08:15:57.408Z,4.30
2019-02-07T08:18:43.791Z,4.30
2019-02-07T08:21:16.850Z,4.40
2019-02-07T08:24:01.239Z,4.50
2019-02-07T08:26:43.774Z,4.50
2019-02-07T08:29:17.982Z,4.60
2019-02-07T08:31:48.972Z,4.50
2019-02-07T08:34:35.509Z,4.50
2019-02-07T08:37:09.640Z,4.40
2019-02-07T08:39:38.905Z,4.50
2019-02-07T08:42:10.086Z,4.50
2019-02-07T08:47:31.777Z,4.50
2019-02-07T08:50:15.292Z,4.50
2019-02-07T08:52:44.216Z,4.70
2019-02-07T08:55:15.344Z,4.70
2019-02-07T08:57:54.741Z,4.50
2019-02-07T09:00:25.072Z,4.50
2019-02-07T09:02:56.274Z,4.50
2019-02-07T09:08:24.737Z,4.40
2019-02-07T09:14:02.540Z,4.40
2019-02-07T09:16:30.881Z,4.50
2019-02-07T09:19:01.394Z,4.50
2019-02-07T09:21:34.809Z,4.50
2019-02-07T09:24:18.222Z,4.60
2019-02-07T09:26:47.755Z,4.60
2019-02-07T09:29:21.045Z,4.60
2019-02-07T09:31:52.248Z,4.70
2019-02-07T09:34:23.853Z,4.70
2019-02-07T09:37:07.601Z,4.80
2019-02-07T09:39:41.093Z,4.80
2019-02-07T09:42:25.385Z,4.70
2019-02-07T09:45:09.685Z,4.80
2019-02-07T09:47:43.720Z,4.70
2019-02-07T09:50:18.065Z,4.70
2019-02-07T09:52:52.344Z,4.70
2019-02-07T09:55:32.629Z,4.70
2019-02-07T09:58:02.896Z,4.80
2019-02-07T10:00:35.436Z,4.80
2019-02-07T10:03:08.209Z,4.80
2019-02-07T10:05:41.306Z,4.80
2019-02-07T10:08:18.855Z,4.70
2019-02-07T10:10:49.160Z,4.80
2019-02-07T10:13:16.865Z,5.00
2019-02-07T10:15:49.984Z,5.00
2019-02-07T10:18:36.268Z,5.10
2019-02-07T10:21:06.506Z,5.30
2019-02-07T10:23:49.200Z,5.60
2019-02-07T10:26:19.264Z,5.80
2019-02-07T10:28:52.588Z,5.60
2019-02-07T10:31:22.763Z,5.70
2019-02-07T10:33:53.018Z,5.30
2019-02-07T10:36:21.712Z,5.30
2019-02-07T10:41:50.179Z,5.70
2019-02-07T10:44:20.368Z,5.80
2019-02-07T10:46:53.520Z,5.80
2019-02-07T10:49:23.714Z,5.80
2019-02-07T10:54:50.416Z,5.80
2019-02-07T10:57:27.912Z,5.80
2019-02-07T11:00:02.041Z,5.90
2019-02-07T11:02:35.280Z,5.90
2019-02-07T11:05:06.333Z,6.20
2019-02-07T11:07:39.556Z,6.30
2019-02-07T11:10:10.345Z,6.20
2019-02-07T11:12:39.664Z,6.40
2019-02-07T11:15:17.187Z,6.50
2019-02-07T11:17:47.556Z,6.40
2019-02-07T11:20:21.667Z,6.10
2019-02-07T11:22:49.427Z,6.40
2019-02-07T11:25:32.688Z,6.30
2019-02-07T11:28:10.615Z,6.30
2019-02-07T11:30:37.375Z,6.60
2019-02-07T11:33:07.864Z,6.80
2019-02-07T11:35:41.719Z,6.50
2019-02-07T11:38:09.273Z,6.50
2019-02-07T11:40:41.200Z,6.50
2019-02-07T11:43:06.929Z,6.80
2019-02-07T11:45:36.049Z,7.20
2019-02-07T11:48:09.226Z,7.60
2019-02-07T11:50:37.395Z,7.70
2019-02-07T11:53:10.672Z,7.80
2019-02-07T11:58:39.076Z,8.50
2019-02-07T12:01:18.387Z,8.50
2019-02-07T12:03:53.388Z,8.70
2019-02-07T12:09:15.289Z,8.80
2019-02-07T12:11:59.627Z,8.80
2019-02-07T12:14:27.191Z,8.70
2019-02-07T12:17:10.356Z,8.70
2019-02-07T12:19:58.615Z,8.60
2019-02-07T12:22:31.851Z,8.70
2019-02-07T12:25:05.052Z,8.70
2019-02-07T12:27:37.426Z,8.70
2019-02-07T12:30:14.274Z,8.60
2019-02-07T12:32:57.672Z,8.60
2019-02-07T12:35:28.872Z,8.40
2019-02-07T12:38:02.141Z,8.40
2019-02-07T12:40:33.357Z,8.20
2019-02-07T12:46:17.784Z,8.60
2019-02-07T12:49:01.108Z,8.50
2019-02-07T12:51:34.440Z,8.70
2019-02-07T12:54:17.660Z,8.60
2019-02-07T12:57:00.868Z,8.60
2019-02-07T12:59:29.365Z,8.50
2019-02-07T13:04:54.877Z,8.50
2019-02-07T13:07:38.252Z,8.60
2019-02-07T13:10:06.760Z,8.60
2019-02-07T13:12:49.230Z,8.70
2019-02-07T13:18:27.040Z,8.60
2019-02-07T13:20:55.553Z,8.50
2019-02-07T13:23:38.949Z,8.30
2019-02-07T13:29:03.688Z,8.20
2019-02-07T13:31:32.583Z,8.20
2019-02-07T13:34:05.365Z,8.20
2019-02-07T13:39:49.152Z,8.20
2019-02-07T13:42:22.408Z,8.20
2019-02-07T13:44:51.763Z,8.20
2019-02-07T13:47:35.240Z,8.20
2019-02-07T13:50:08.534Z,8.20
2019-02-07T13:52:41.828Z,8.20
2019-02-07T13:55:12.966Z,8.20
2019-02-07T13:57:56.177Z,8.10
2019-02-07T14:00:25.504Z,8.10
2019-02-07T14:03:03.868Z,8.10
2019-02-07T14:05:34.940Z,8.10
2019-02-07T14:08:22.287Z,8.10
2019-02-07T14:10:53.653Z,8.10
2019-02-07T14:13:21.224Z,8.10
2019-02-07T14:15:48.805Z,8.10
2019-02-07T14:18:18.376Z,8.10
2019-02-07T14:23:51.841Z,8.00
2019-02-07T14:26:23.260Z,8.00
2019-02-07T14:29:06.924Z,8.00
2019-02-07T14:31:49.370Z,8.00
2019-02-07T14:34:32.726Z,7.90
2019-02-07T14:37:03.984Z,7.90
2019-02-07T14:39:43.346Z,7.90
2019-02-07T14:42:16.706Z,7.90
2019-02-07T14:44:46.844Z,7.80
2019-02-07T14:47:14.531Z,7.80
2019-02-07T14:49:42.105Z,7.80
2019-02-07T14:52:09.771Z,7.80
2019-02-07T14:54:37.280Z,7.80
2019-02-07T14:57:04.848Z,7.80
2019-02-07T14:59:32.413Z,7.90
2019-02-07T15:01:59.978Z,7.90
2019-02-07T15:04:29.565Z,7.80
2019-02-07T15:06:58.120Z,7.80
2019-02-07T15:09:25.692Z,7.80
2019-02-07T15:11:53.281Z,7.70
2019-02-07T15:14:20.848Z,7.80
2019-02-07T15:16:48.422Z,7.70
2019-02-07T15:19:16.761Z,7.70
2019-02-07T15:21:44.332Z,7.70
2019-02-07T15:24:11.897Z,7.70
2019-02-07T15:26:40.400Z,7.70
2019-02-07T15:29:08.729Z,7.80
2019-02-07T15:31:36.290Z,7.80
2019-02-07T15:34:03.865Z,7.80
2019-02-07T15:36:31.427Z,7.70
2019-02-07T15:38:59.000Z,7.80
2019-02-07T15:41:26.612Z,7.70
2019-02-07T15:43:54.184Z,7.60
2019-02-07T15:46:21.760Z,7.60
2019-02-07T15:48:49.332Z,7.60
2019-02-07T15:51:17.671Z,7.60
2019-02-07T15:53:45.236Z,7.60
2019-02-07T15:56:12.813Z,7.60
2019-02-07T15:58:42.032Z,7.60
2019-02-07T16:01:09.608Z,7.60
2019-02-07T16:03:37.167Z,7.50
2019-02-07T16:06:06.400Z,7.50
2019-02-07T16:08:32.360Z,7.50
2019-02-07T16:11:02.609Z,7.50
2019-02-07T16:13:30.179Z,7.50
2019-02-07T16:15:57.744Z,7.50
2019-02-07T16:18:25.307Z,7.50
2019-02-07T16:20:52.885Z,7.40
2019-02-07T16:23:20.454Z,7.50
2019-02-07T16:25:48.784Z,7.50
2019-02-07T16:28:16.348Z,7.50
2019-02-07T16:30:43.970Z,7.50
2019-02-07T16:33:11.533Z,7.50
2019-02-07T16:35:39.109Z,7.60
2019-02-07T16:38:06.685Z,7.60
2019-02-07T16:40:34.262Z,7.70
2019-02-07T16:43:03.744Z,7.60
2019-02-07T16:45:31.316Z,7.50
2019-02-07T16:47:58.958Z,7.40
2019-02-07T16:50:29.312Z,7.40
2019-02-07T16:52:56.879Z,7.30
2019-02-07T16:55:24.501Z,7.20
2019-02-07T16:57:52.064Z,7.20
2019-02-07T17:00:26.556Z,7.10
2019-02-07T17:02:56.091Z,7.10
2019-02-07T17:05:23.669Z,7.00
2019-02-07T17:07:51.240Z,7.00
2019-02-07T17:10:27.452Z,6.70
2019-02-07T17:12:55.025Z,6.70
2019-02-07T17:15:23.511Z,6.60
2019-02-07T17:17:51.129Z,6.70
2019-02-07T17:20:20.509Z,6.70
2019-02-07T17:22:49.120Z,6.70
2019-02-07T17:25:16.721Z,6.60
2019-02-07T17:27:44.297Z,6.60
2019-02-07T17:30:12.664Z,6.60
2019-02-07T17:32:40.224Z,6.50
2019-02-07T17:35:07.840Z,6.50
2019-02-07T17:37:35.416Z,6.40
2019-02-07T17:40:03.024Z,6.30
2019-02-07T17:42:31.523Z,6.40
2019-02-07T17:44:59.099Z,6.10
2019-02-07T17:47:26.684Z,6.10
2019-02-07T17:49:54.252Z,6.00
2019-02-07T17:52:21.961Z,5.80
2019-02-07T17:54:49.540Z,5.90
2019-02-07T17:57:17.109Z,6.10
2019-02-07T17:59:44.676Z,6.20
2019-02-07T18:02:13.024Z,6.20
2019-02-07T18:04:40.596Z,6.10
2019-02-07T18:07:08.173Z,6.10
2019-02-07T18:09:35.785Z,6.10
2019-02-07T18:12:03.360Z,6.00
2019-02-07T18:14:30.978Z,5.80
2019-02-07T18:16:58.853Z,5.70
2019-02-07T18:19:26.417Z,5.70
2019-02-07T18:21:57.146Z,5.70
2019-02-07T18:24:23.271Z,5.70
2019-02-07T18:26:51.772Z,5.80
2019-02-07T18:29:19.344Z,5.90
2019-02-07T18:31:46.920Z,5.90
2019-02-07T18:34:14.882Z,6.00
2019-02-07T18:36:42.461Z,6.00
2019-02-07T18:39:10.100Z,5.90
2019-02-07T18:41:38.720Z,6.00
2019-02-07T18:44:06.291Z,6.00
2019-02-07T18:46:35.773Z,6.00
2019-02-07T18:49:03.348Z,5.90
2019-02-07T18:51:31.137Z,6.00
2019-02-07T18:54:00.644Z,6.00
2019-02-07T18:56:28.220Z,5.90
2019-02-07T18:58:56.709Z,5.80
2019-02-07T19:01:24.319Z,5.70
2019-02-07T19:03:52.833Z,5.70
2019-02-07T19:06:20.420Z,5.60
2019-02-07T19:08:47.987Z,5.60
2019-02-07T19:11:15.572Z,5.60
2019-02-07T19:13:43.246Z,5.60
2019-02-07T19:16:12.691Z,5.60
2019-02-07T19:18:40.388Z,5.60
2019-02-07T19:21:07.956Z,5.60
2019-02-07T19:23:35.537Z,5.50
2019-02-07T19:26:03.461Z,5.50
2019-02-07T19:28:31.231Z,5.50
2019-02-07T19:30:59.729Z,5.50
2019-02-07T19:33:27.574Z,5.50
2019-02-07T19:35:55.152Z,5.30
2019-02-07T19:38:22.791Z,5.00
2019-02-07T19:40:50.372Z,4.90
2019-02-07T19:43:17.941Z,4.80
2019-02-07T19:45:45.521Z,4.70
2019-02-07T19:48:13.869Z,4.60
2019-02-07T19:50:41.447Z,4.60
2019-02-07T19:53:09.017Z,4.80
2019-02-07T19:55:36.641Z,4.90
2019-02-07T19:58:04.222Z,4.90
2019-02-07T20:00:31.788Z,4.90
2019-02-07T20:03:00.125Z,4.70
2019-02-07T20:05:27.705Z,4.60
2019-02-07T20:07:56.248Z,4.50
2019-02-07T20:10:23.832Z,4.50
2019-02-07T20:12:51.450Z,4.40
2019-02-07T20:15:34.787Z,4.30
2019-02-07T20:18:02.629Z,4.30
2019-02-07T20:20:30.867Z,4.30
2019-02-07T20:22:58.585Z,4.30
2019-02-07T20:25:27.217Z,4.20
2019-02-07T20:27:54.850Z,4.10
2019-02-07T20:30:23.985Z,4.10
2019-02-07T20:32:51.579Z,4.10
2019-02-07T20:35:19.160Z,3.90
2019-02-07T20:37:46.885Z,3.80
2019-02-07T20:40:14.477Z,3.80
2019-02-07T20:42:42.060Z,3.70
2019-02-07T20:45:09.634Z,3.60
2019-02-07T20:47:37.252Z,3.60
2019-02-07T20:50:04.836Z,3.70
2019-02-07T20:52:35.590Z,3.80
2019-02-07T20:55:03.216Z,3.80
2019-02-07T20:57:31.810Z,4.10
2019-02-07T21:00:00.204Z,4.10
2019-02-07T21:02:29.707Z,4.00
2019-02-07T21:04:59.244Z,4.10
2019-02-07T21:07:28.788Z,4.10
2019-02-07T21:09:56.356Z,4.00
2019-02-07T21:12:24.889Z,4.00
2019-02-07T21:14:52.465Z,4.10
2019-02-07T21:17:20.104Z,3.80
2019-02-07T21:19:47.870Z,4.00
2019-02-07T21:22:16.407Z,4.00
2019-02-07T21:24:44.251Z,4.00
2019-02-07T21:27:12.592Z,4.20
2019-02-07T21:29:40.165Z,4.20
2019-02-07T21:32:07.738Z,4.20
2019-02-07T21:34:35.321Z,4.00
2019-02-07T21:37:02.916Z,3.90
2019-02-07T21:39:32.404Z,3.80
2019-02-07T21:42:02.001Z,3.80
2019-02-07T21:44:29.579Z,3.70
2019-02-07T21:46:57.243Z,3.80
2019-02-07T21:49:24.901Z,3.80
2019-02-07T21:51:52.473Z,3.70
2019-02-07T21:54:20.991Z,3.80
2019-02-07T21:56:48.564Z,3.80
2019-02-07T21:59:16.905Z,4.00
2019-02-07T22:01:44.476Z,4.00
2019-02-07T22:04:13.987Z,4.00
2019-02-07T22:06:42.324Z,4.10
2019-02-07T22:09:09.900Z,4.10
2019-02-07T22:11:37.479Z,4.10
2019-02-07T22:14:05.067Z,4.10
2019-02-07T22:16:32.675Z,4.10
2019-02-07T22:19:00.276Z,4.10
2019-02-07T22:21:27.852Z,4.10
2019-02-07T22:23:55.417Z,3.90
2019-02-07T22:26:23.996Z,3.80
2019-02-07T22:28:51.555Z,3.80
2019-02-07T22:31:19.128Z,3.80
2019-02-07T22:33:46.716Z,3.90
2019-02-07T22:36:14.329Z,3.80
2019-02-07T22:38:41.896Z,3.70
2019-02-07T22:41:09.473Z,3.90
2019-02-07T22:43:37.039Z,3.80
2019-02-07T22:46:04.613Z,3.90
2019-02-07T22:48:32.189Z,4.00
2019-02-07T22:50:59.760Z,3.90
2019-02-07T22:53:27.376Z,4.00
2019-02-07T22:55:54.951Z,4.10
2019-02-07T22:58:22.524Z,4.20
2019-02-07T23:03:45.404Z,4.20
2019-02-07T23:06:12.980Z,4.10
2019-02-07T23:08:40.551Z,4.00
2019-02-07T23:11:08.120Z,4.10
2019-02-07T23:13:37.611Z,4.10
2019-02-07T23:16:05.191Z,4.10
2019-02-07T23:18:35.468Z,4.40
2019-02-07T23:21:03.101Z,4.40
2019-02-07T23:23:30.680Z,4.50
2019-02-07T23:25:58.254Z,4.80
2019-02-07T23:28:25.827Z,5.10
2019-02-07T23:30:55.312Z,5.30
2019-02-07T23:33:22.891Z,5.40
2019-02-07T23:35:50.467Z,5.60
2019-02-07T23:38:18.082Z,5.70
2019-02-07T23:40:45.655Z,5.80
2019-02-07T23:43:13.228Z,5.90
2019-02-07T23:45:40.816Z,6.00
2019-02-07T23:48:09.143Z,6.10
2019-02-07T23:50:36.712Z,6.10
2019-02-07T23:53:04.312Z,6.10
2019-02-07T23:55:31.904Z,6.10
2019-02-07T23:57:59.522Z,6.10
